createdAt,value
2018-10-11T08:07:30.000Z,1.580
2018-10-11T08:08:29.000Z,3.036
2018-10-11T08:09:30.000Z,2.492
2018-10-11T08:11:29.000Z,2.857
2018-10-11T08:12:29.000Z,3.059
2018-10-11T08:13:29.000Z,6.262
2018-10-11T08:19:28.000Z,0.356
2018-10-11T08:20:27.000Z,3.751
2018-10-11T08:21:28.000Z,13.799
2018-10-11T08:22:27.000Z,4.620
2018-10-11T08:23:27.000Z,4.787
2018-10-11T08:24:27.000Z,5.632
2018-10-11T08:25:27.000Z,8.004
2018-10-11T09:05:28.000Z,3.018
2018-10-11T09:06:27.000Z,3.687
2018-10-11T09:07:27.000Z,5.545
2018-10-11T09:08:27.000Z,4.840
2018-10-11T09:09:28.000Z,3.992
2018-10-11T09:10:28.000Z,4.928
2018-10-11T09:11:28.000Z,5.527
2018-10-11T09:12:28.000Z,4.938
2018-10-11T09:13:28.000Z,5.956
2018-10-11T09:14:28.000Z,5.776
2018-10-11T09:15:28.000Z,0.098
2018-10-11T09:16:27.000Z,0.040
2018-10-11T09:17:28.000Z,0.350
2018-10-11T09:18:28.000Z,0.134
2018-10-11T09:19:27.000Z,0.237
2018-10-11T09:20:28.000Z,0.984
2018-10-11T09:21:27.000Z,0.128
2018-10-11T09:22:28.000Z,0.071
2018-10-11T09:23:28.000Z,0.310
2018-10-11T09:24:28.000Z,0.074
2018-10-11T09:25:27.000Z,1.133
2018-10-11T09:26:28.000Z,0.289
2018-10-11T09:27:27.000Z,0.056
2018-10-11T09:28:28.000Z,0.102
2018-10-11T09:29:28.000Z,0.054
2018-10-11T09:30:28.000Z,0.070
2018-10-11T09:31:27.000Z,0.035
2018-10-11T09:32:27.000Z,0.055
2018-10-11T09:33:28.000Z,0.021
2018-10-11T09:34:27.000Z,0.049
2018-10-11T09:35:28.000Z,0.105
2018-10-11T09:36:27.000Z,0.060
2018-10-11T09:37:28.000Z,0.049
2018-10-11T09:38:27.000Z,0.124
2018-10-11T09:39:28.000Z,0.145
2018-10-11T09:40:27.000Z,0.117
2018-10-11T09:41:28.000Z,0.109
2018-10-11T09:42:27.000Z,0.126
2018-10-11T09:43:27.000Z,0.091
2018-10-11T09:44:28.000Z,0.080
2018-10-11T09:45:28.000Z,5.000
2018-10-11T09:46:28.000Z,5.748
2018-10-11T09:47:27.000Z,5.127
2018-10-11T09:48:28.000Z,6.389
2018-10-11T09:49:28.000Z,2.816
2018-10-11T09:50:28.000Z,5.402
2018-10-11T09:51:28.000Z,5.677
2018-10-11T09:52:27.000Z,3.124
2018-10-11T09:53:27.000Z,5.773
2018-10-11T09:56:28.000Z,3.460
2018-10-11T09:58:28.000Z,0.099
2018-10-11T09:59:27.000Z,1.354
2018-10-11T10:00:27.000Z,0.455
2018-10-11T10:01:27.000Z,0.234
2018-10-11T10:02:27.000Z,0.518
2018-10-11T10:03:28.000Z,1.226
